createdAt,value
2022-11-28T00:03:57.947Z,80.26
2022-11-28T00:06:24.692Z,81.04
2022-11-28T00:08:51.733Z,80.30
2022-11-28T00:11:18.718Z,79.40
2022-11-28T00:13:46.370Z,79.52
2022-11-28T00:16:17.550Z,79.48
2022-11-28T00:18:44.816Z,80.86
2022-11-28T00:21:14.434Z,80.49
2022-11-28T00:23:42.960Z,79.96
2022-11-28T00:26:13.872Z,80.61
2022-11-28T00:28:40.432Z,80.72
2022-11-28T00:31:11.579Z,79.54
2022-11-28T00:33:38.145Z,81.20
2022-11-28T00:36:05.896Z,80.52
2022-11-28T00:38:32.512Z,81.33
2022-11-28T00:41:02.158Z,80.38
2022-11-28T00:43:29.600Z,81.59
2022-11-28T00:45:56.619Z,80.66
2022-11-28T00:48:23.841Z,80.62
2022-11-28T00:50:51.636Z,80.69
2022-11-28T00:53:18.282Z,80.46
2022-11-28T00:55:44.927Z,81.54
2022-11-28T00:58:11.805Z,79.72
2022-11-28T01:00:38.875Z,80.28
2022-11-28T01:03:05.580Z,80.87
2022-11-28T01:05:32.168Z,81.51
2022-11-28T01:07:59.189Z,80.99
2022-11-28T01:10:27.109Z,80.62
2022-11-28T01:12:53.786Z,81.42
2022-11-28T01:15:20.362Z,80.42
2022-11-28T01:17:46.920Z,80.28
2022-11-28T01:20:13.764Z,81.17
2022-11-28T01:22:40.321Z,80.86
2022-11-28T01:25:07.347Z,80.18
2022-11-28T01:27:33.889Z,80.03
2022-11-28T01:30:00.461Z,80.81
2022-11-28T01:32:27.094Z,81.17
2022-11-28T01:34:53.654Z,81.87
2022-11-28T01:37:20.206Z,81.45
2022-11-28T01:39:46.823Z,82.13
2022-11-28T01:42:21.500Z,81.23
2022-11-28T01:47:28.101Z,80.31
2022-11-28T01:49:55.554Z,80.58
2022-11-28T01:52:23.352Z,81.10
2022-11-28T01:54:56.298Z,81.89
2022-11-28T01:57:25.491Z,81.57
2022-11-28T02:00:13.897Z,81.50
2022-11-28T02:02:45.793Z,82.33
2022-11-28T02:05:13.360Z,80.97
2022-11-28T02:07:40.366Z,81.33
2022-11-28T02:10:10.729Z,81.78
2022-11-28T02:12:49.915Z,80.55
2022-11-28T02:32:13.865Z,80.87
2022-11-28T02:37:38.061Z,78.05
2022-11-28T02:45:30.404Z,80.75
2022-11-28T02:48:03.915Z,80.90
2022-11-28T02:50:39.541Z,81.03
2022-11-28T02:53:12.376Z,81.79
2022-11-28T02:55:41.361Z,80.89
2022-11-28T02:58:09.289Z,81.57
2022-11-28T03:00:38.424Z,81.68
2022-11-28T03:08:46.149Z,81.26
2022-11-28T03:13:57.836Z,79.38
2022-11-28T03:16:31.250Z,81.30
2022-11-28T03:29:37.153Z,81.54
2022-11-28T03:32:13.477Z,81.86
2022-11-28T03:34:44.884Z,81.06
2022-11-28T03:37:15.687Z,80.77
2022-11-28T03:39:48.383Z,80.99
2022-11-28T03:42:19.723Z,81.83
2022-11-28T03:44:52.547Z,81.18
2022-11-28T03:47:19.249Z,82.54
2022-11-28T03:49:53.139Z,82.78
2022-11-28T03:52:38.061Z,81.71
2022-11-28T03:55:11.717Z,82.90
2022-11-28T03:57:54.680Z,82.26
2022-11-28T04:00:21.376Z,81.68
2022-11-28T04:03:02.140Z,82.13
2022-11-28T04:08:27.298Z,80.42
2022-11-28T04:18:57.790Z,82.69
2022-11-28T04:24:09.383Z,82.20
2022-11-28T04:26:41.082Z,82.52
2022-11-28T04:29:11.045Z,81.06
2022-11-28T04:31:40.547Z,81.78
2022-11-28T04:34:10.171Z,82.57
2022-11-28T04:36:40.599Z,81.91
2022-11-28T04:39:14.897Z,81.45
2022-11-28T04:41:48.544Z,81.10
2022-11-28T04:44:39.747Z,81.48
2022-11-28T04:47:07.005Z,82.33
2022-11-28T04:49:34.054Z,82.10
2022-11-28T04:57:20.786Z,81.77
2022-11-28T04:59:48.773Z,81.68
2022-11-28T05:02:17.848Z,81.12
2022-11-28T05:04:45.404Z,81.76
2022-11-28T05:07:12.251Z,82.25
2022-11-28T05:09:39.019Z,80.83
2022-11-28T05:12:06.607Z,81.77
2022-11-28T05:14:33.220Z,82.28
2022-11-28T05:16:59.773Z,81.35
2022-11-28T05:19:26.295Z,81.59
2022-11-28T05:21:53.590Z,81.74
2022-11-28T05:24:22.349Z,82.24
2022-11-28T05:26:49.355Z,81.23
2022-11-28T05:29:16.174Z,82.39
2022-11-28T05:31:42.803Z,81.36
2022-11-28T05:34:09.461Z,81.25
2022-11-28T05:36:36.111Z,81.09
2022-11-28T05:39:03.001Z,80.92
2022-11-28T05:41:31.774Z,81.26
2022-11-28T05:43:59.485Z,81.85
2022-11-28T05:46:27.219Z,81.74
2022-11-28T05:48:54.003Z,81.56
2022-11-28T05:51:20.553Z,81.51
2022-11-28T05:53:47.234Z,82.31
2022-11-28T05:56:17.150Z,82.01
2022-11-28T05:58:44.575Z,81.99
2022-11-28T06:01:15.328Z,83.22
2022-11-28T06:03:42.520Z,82.21
2022-11-28T06:06:17.051Z,81.74
2022-11-28T06:08:44.360Z,82.20
2022-11-28T06:11:12.209Z,82.32
2022-11-28T06:13:38.789Z,81.44
2022-11-28T06:16:10.816Z,82.27
2022-11-28T06:18:38.443Z,83.31
2022-11-28T06:21:06.334Z,83.10
2022-11-28T06:23:33.321Z,82.37
2022-11-28T06:26:06.509Z,81.25
2022-11-28T06:28:33.969Z,81.83
2022-11-28T06:31:01.126Z,82.09
2022-11-28T06:33:27.751Z,82.85
2022-11-28T06:36:04.158Z,81.23
2022-11-28T06:38:31.517Z,81.56
2022-11-28T06:41:00.108Z,81.32
2022-11-28T06:43:26.817Z,82.04
2022-11-28T06:45:53.483Z,81.47
2022-11-28T06:48:20.282Z,81.31
2022-11-28T06:50:46.993Z,81.97
2022-11-28T06:53:13.892Z,82.25
2022-11-28T06:55:40.785Z,82.38
2022-11-28T06:58:07.322Z,81.98
2022-11-28T07:00:34.244Z,81.96
2022-11-28T07:03:00.819Z,81.19
2022-11-28T07:05:27.891Z,81.89
2022-11-28T07:07:55.098Z,82.39
2022-11-28T07:10:22.974Z,81.56
2022-11-28T07:12:54.755Z,82.63
2022-11-28T07:15:21.861Z,81.61
2022-11-28T07:17:48.683Z,81.75
2022-11-28T07:20:15.551Z,81.65
2022-11-28T07:22:43.732Z,81.45
2022-11-28T07:25:11.218Z,81.79
2022-11-28T07:27:37.748Z,81.63
2022-11-28T07:30:04.838Z,82.00
2022-11-28T07:32:31.378Z,82.24
2022-11-28T07:34:57.966Z,81.65
2022-11-28T07:37:24.536Z,82.10
2022-11-28T07:39:51.145Z,81.66
2022-11-28T07:42:17.762Z,81.59
2022-11-28T07:44:44.309Z,81.62
2022-11-28T07:47:10.819Z,82.21
2022-11-28T07:49:37.384Z,81.29
2022-11-28T07:52:04.091Z,81.80
2022-11-28T07:54:30.838Z,81.96
2022-11-28T07:57:12.011Z,81.04
2022-11-28T07:59:39.489Z,81.52
2022-11-28T08:02:06.174Z,81.43
2022-11-28T08:04:32.729Z,81.16
2022-11-28T08:07:00.363Z,82.16
2022-11-28T08:09:26.925Z,81.19
2022-11-28T08:11:53.720Z,80.94
2022-11-28T08:14:20.422Z,82.74
2022-11-28T08:16:47.081Z,82.77
2022-11-28T08:19:13.873Z,82.08
2022-11-28T08:21:40.688Z,80.98
2022-11-28T08:24:08.258Z,81.64
2022-11-28T08:26:35.448Z,81.13
2022-11-28T08:29:03.333Z,81.58
2022-11-28T08:31:36.273Z,81.75
2022-11-28T08:34:05.497Z,81.28
2022-11-28T08:36:32.231Z,81.38
2022-11-28T08:39:23.870Z,81.69
2022-11-28T08:41:48.289Z,82.69
2022-11-28T08:44:15.436Z,81.52
2022-11-28T08:46:42.169Z,81.92
2022-11-28T08:49:08.848Z,81.98
2022-11-28T08:51:36.589Z,81.55
2022-11-28T08:54:03.130Z,80.99
2022-11-28T08:56:29.687Z,82.29
2022-11-28T08:58:56.267Z,80.95
2022-11-28T09:01:25.499Z,82.67
2022-11-28T09:03:53.729Z,82.70
2022-11-28T09:06:21.782Z,82.23
2022-11-28T09:08:51.256Z,81.49
2022-11-28T09:11:19.754Z,80.95
2022-11-28T09:13:46.808Z,80.26
2022-11-28T09:16:14.451Z,78.98
2022-11-28T09:18:41.169Z,78.26
2022-11-28T09:21:09.680Z,77.78
2022-11-28T09:23:37.366Z,76.58
2022-11-28T09:28:47.824Z,75.77
2022-11-28T09:31:16.103Z,75.47
2022-11-28T09:33:43.706Z,75.49
2022-11-28T09:36:14.570Z,76.56
2022-11-28T09:38:41.171Z,76.93
2022-11-28T09:46:54.745Z,76.51
2022-11-28T09:49:36.748Z,74.18
2022-11-28T09:52:26.609Z,71.59
2022-11-28T09:55:04.260Z,71.65
2022-11-28T09:57:51.569Z,70.85
2022-11-28T10:00:22.808Z,71.49
2022-11-28T10:19:46.053Z,65.59
2022-11-28T10:22:11.681Z,64.37
2022-11-28T10:24:43.729Z,62.96
2022-11-28T10:27:13.757Z,64.28
2022-11-28T10:30:03.059Z,62.92
2022-11-28T10:32:40.663Z,63.58
2022-11-28T10:37:51.128Z,66.33
2022-11-28T10:40:45.117Z,66.43
2022-11-28T10:43:39.485Z,67.00
2022-11-28T10:46:38.123Z,67.03
2022-11-28T10:49:44.765Z,67.74
2022-11-28T10:52:26.422Z,67.12
2022-11-28T10:58:18.653Z,67.21
2022-11-28T11:00:49.445Z,67.56
2022-11-28T11:03:18.584Z,68.61
2022-11-28T11:05:45.545Z,68.10
2022-11-28T11:08:20.173Z,68.11
2022-11-28T11:13:25.723Z,66.59
2022-11-28T11:24:18.493Z,69.80
2022-11-28T11:26:48.859Z,70.12
2022-11-28T11:32:03.691Z,68.79
2022-11-28T11:34:36.672Z,70.03
2022-11-28T11:43:25.984Z,69.07
2022-11-28T11:46:13.553Z,69.45
2022-11-28T11:48:43.984Z,68.85
2022-11-28T11:54:18.301Z,69.27
2022-11-28T11:56:51.265Z,69.70
2022-11-28T12:02:17.298Z,71.20
2022-11-28T12:04:55.146Z,69.73
2022-11-28T12:07:29.974Z,71.09
2022-11-28T12:10:03.054Z,71.34
2022-11-28T12:12:38.115Z,70.41
2022-11-28T12:15:14.170Z,70.53
2022-11-28T12:17:58.601Z,70.38
2022-11-28T12:38:13.786Z,71.73
2022-11-28T12:56:54.592Z,72.02
2022-11-28T12:59:49.088Z,72.22
2022-11-28T13:02:44.036Z,73.04
2022-11-28T13:08:15.880Z,72.18
2022-11-28T13:10:47.451Z,72.22
2022-11-28T13:18:54.464Z,72.62
2022-11-28T13:24:08.760Z,73.01
2022-11-28T13:34:54.027Z,73.33
2022-11-28T13:45:44.004Z,71.31
2022-11-28T13:57:38.274Z,72.50
2022-11-28T14:00:23.893Z,72.84
2022-11-28T14:02:54.943Z,72.63
2022-11-28T14:08:07.265Z,73.71
2022-11-28T14:10:49.236Z,73.52
2022-11-28T14:13:34.685Z,73.01
2022-11-28T14:21:45.531Z,72.71
2022-11-28T14:26:59.512Z,72.72
2022-11-28T14:29:35.030Z,73.48
2022-11-28T14:34:49.078Z,73.34
2022-11-28T14:37:36.802Z,73.51
2022-11-28T14:40:23.887Z,74.20
2022-11-28T14:43:30.369Z,73.09
2022-11-28T14:46:25.836Z,74.09
2022-11-28T14:54:35.491Z,73.65
2022-11-28T14:57:03.705Z,73.97
2022-11-28T14:59:34.397Z,73.46
2022-11-28T15:02:26.134Z,73.80
2022-11-28T15:13:30.743Z,74.50
2022-11-28T15:15:57.877Z,74.32
2022-11-28T15:18:26.283Z,74.23
2022-11-28T15:21:01.312Z,74.22
2022-11-28T15:23:35.088Z,74.17
2022-11-28T15:26:03.219Z,74.46
2022-11-28T15:28:32.487Z,74.42
2022-11-28T15:31:01.476Z,73.70
2022-11-28T15:33:29.013Z,73.99
2022-11-28T15:38:32.397Z,74.53
2022-11-28T15:41:00.607Z,74.43
2022-11-28T15:43:27.755Z,73.99
2022-11-28T15:45:59.091Z,74.63
2022-11-28T15:48:37.675Z,74.11
2022-11-28T15:51:07.640Z,73.82
2022-11-28T15:53:42.270Z,74.46
2022-11-28T15:56:13.778Z,74.12
2022-11-28T15:58:41.221Z,74.11
2022-11-28T16:01:17.008Z,74.45
2022-11-28T16:03:49.757Z,74.65
2022-11-28T16:06:18.393Z,73.80
2022-11-28T16:08:50.905Z,74.25
2022-11-28T16:11:19.890Z,73.91
2022-11-28T16:13:47.793Z,74.04
2022-11-28T16:16:19.572Z,74.37
2022-11-28T16:18:54.726Z,74.32
2022-11-28T16:21:25.013Z,74.06
2022-11-28T16:23:51.588Z,74.97
2022-11-28T16:26:40.414Z,74.65
2022-11-28T16:31:44.906Z,75.04
2022-11-28T16:34:14.899Z,74.62
2022-11-28T16:36:45.837Z,74.73
2022-11-28T16:41:54.865Z,73.15
2022-11-28T16:44:24.885Z,74.33
2022-11-28T16:46:56.733Z,74.16
2022-11-28T16:54:58.852Z,74.90
2022-11-28T16:57:30.217Z,74.91
2022-11-28T16:59:59.442Z,74.72
2022-11-28T17:02:26.954Z,74.68
2022-11-28T17:04:54.234Z,75.41
2022-11-28T17:07:24.286Z,74.85
2022-11-28T17:09:51.055Z,75.20
2022-11-28T17:14:55.169Z,75.33
2022-11-28T17:17:24.058Z,74.74
2022-11-28T17:19:51.249Z,75.66
2022-11-28T17:22:21.177Z,75.12
2022-11-28T17:24:49.614Z,75.26
2022-11-28T17:27:16.764Z,75.39
2022-11-28T17:29:43.866Z,75.25
2022-11-28T17:32:13.505Z,74.91
2022-11-28T17:34:42.237Z,75.48
2022-11-28T17:37:10.077Z,74.82
2022-11-28T17:39:36.658Z,75.68
2022-11-28T17:42:03.337Z,75.46
2022-11-28T17:44:32.809Z,74.93
2022-11-28T17:47:00.823Z,74.82
2022-11-28T17:49:28.184Z,74.99
2022-11-28T17:51:55.929Z,74.81
2022-11-28T17:54:24.392Z,75.65
2022-11-28T17:56:53.146Z,75.01
2022-11-28T17:59:22.381Z,75.74
2022-11-28T18:01:49.461Z,75.02
2022-11-28T18:04:16.568Z,75.89
2022-11-28T18:06:44.743Z,76.52
2022-11-28T18:09:12.482Z,75.92
2022-11-28T18:11:40.519Z,75.29
2022-11-28T18:14:07.274Z,75.56
2022-11-28T18:16:36.015Z,76.43
2022-11-28T18:19:03.887Z,75.45
2022-11-28T18:21:30.540Z,75.22
2022-11-28T18:23:57.185Z,76.28
2022-11-28T18:26:26.223Z,75.45
2022-11-28T18:28:53.904Z,75.80
2022-11-28T18:31:23.602Z,76.65
2022-11-28T18:33:50.905Z,76.10
2022-11-28T18:36:20.380Z,76.35
2022-11-28T18:38:47.623Z,75.13
2022-11-28T18:41:16.923Z,76.66
2022-11-28T18:43:44.513Z,76.74
2022-11-28T18:46:13.745Z,75.09
2022-11-28T18:48:42.770Z,76.72
2022-11-28T18:51:15.241Z,76.11
2022-11-28T18:53:42.681Z,75.24
2022-11-28T18:56:09.966Z,76.78
2022-11-28T18:58:39.405Z,76.17
2022-11-28T19:03:51.004Z,76.17
2022-11-28T19:06:17.868Z,76.94
2022-11-28T19:08:44.627Z,76.48
2022-11-28T19:11:14.529Z,75.74
2022-11-28T19:13:42.804Z,77.27
2022-11-28T19:16:13.236Z,76.13
2022-11-28T19:18:40.822Z,76.07
2022-11-28T19:21:10.041Z,76.87
2022-11-28T19:23:36.812Z,77.21
2022-11-28T19:26:05.522Z,77.07
2022-11-28T19:28:32.272Z,75.73
2022-11-28T19:33:43.916Z,75.13
2022-11-28T19:36:12.636Z,76.50
2022-11-28T19:38:40.322Z,77.03
2022-11-28T19:41:10.218Z,77.63
2022-11-28T19:43:36.816Z,77.18
2022-11-28T19:46:04.412Z,77.53
2022-11-28T19:48:32.725Z,76.55
2022-11-28T19:50:59.403Z,77.27
2022-11-28T19:53:26.599Z,76.91
2022-11-28T19:55:54.257Z,76.97
2022-11-28T19:58:22.067Z,77.59
2022-11-28T20:00:49.291Z,76.91
2022-11-28T20:03:16.046Z,77.71
2022-11-28T20:05:42.889Z,76.73
2022-11-28T20:08:09.575Z,77.83
2022-11-28T20:10:38.538Z,76.78
2022-11-28T20:13:06.435Z,76.51
2022-11-28T20:15:37.144Z,77.85
2022-11-28T20:18:03.972Z,77.54
2022-11-28T20:20:31.007Z,76.91
2022-11-28T20:22:59.115Z,77.83
2022-11-28T20:25:25.911Z,77.54
2022-11-28T20:27:52.622Z,77.76
2022-11-28T20:30:19.335Z,77.00
2022-11-28T20:32:45.899Z,76.76
2022-11-28T20:35:12.835Z,77.42
2022-11-28T20:37:39.404Z,77.38
2022-11-28T20:40:06.857Z,77.02
2022-11-28T20:42:39.436Z,77.26
2022-11-28T20:45:07.084Z,77.24
2022-11-28T20:47:34.845Z,76.75
2022-11-28T20:50:01.520Z,77.08
2022-11-28T20:52:28.153Z,76.67
2022-11-28T20:54:54.684Z,77.91
2022-11-28T20:57:22.411Z,76.94
2022-11-28T20:59:49.475Z,76.60
2022-11-28T21:02:16.156Z,77.00
2022-11-28T21:04:42.836Z,77.23
2022-11-28T21:07:09.401Z,76.91
2022-11-28T21:09:35.958Z,77.68
2022-11-28T21:12:02.552Z,78.09
2022-11-28T21:14:29.461Z,77.92
2022-11-28T21:16:57.376Z,77.60
2022-11-28T21:19:24.005Z,77.12
2022-11-28T21:21:50.644Z,77.44
2022-11-28T21:24:17.265Z,78.17
2022-11-28T21:26:48.164Z,77.33
2022-11-28T21:29:19.850Z,78.46
2022-11-28T21:31:46.807Z,78.39
2022-11-28T21:34:14.705Z,78.18
2022-11-28T21:36:41.827Z,77.52
2022-11-28T21:39:13.898Z,77.03
2022-11-28T21:41:40.726Z,78.28
2022-11-28T21:44:07.343Z,77.31
2022-11-28T21:46:33.947Z,77.08
2022-11-28T21:49:00.558Z,77.54
2022-11-28T21:51:28.745Z,77.06
2022-11-28T21:53:57.407Z,78.31
2022-11-28T21:56:24.321Z,77.54
2022-11-28T21:58:50.888Z,77.03
2022-11-28T22:01:18.081Z,77.31
2022-11-28T22:03:44.766Z,77.36
2022-11-28T22:06:18.240Z,77.02
2022-11-28T22:08:45.483Z,77.68
2022-11-28T22:11:13.428Z,77.89
2022-11-28T22:13:43.349Z,78.08
2022-11-28T22:16:14.400Z,77.11
2022-11-28T22:18:40.953Z,78.36
2022-11-28T22:21:28.569Z,77.49
2022-11-28T22:23:56.178Z,77.45
2022-11-28T22:26:22.929Z,77.31
2022-11-28T22:28:53.541Z,78.29
2022-11-28T22:31:21.252Z,78.18
2022-11-28T22:33:49.218Z,76.99
2022-11-28T22:36:18.315Z,77.93
2022-11-28T22:38:46.050Z,77.96
2022-11-28T22:41:16.155Z,77.62
2022-11-28T22:43:42.788Z,77.38
2022-11-28T22:46:10.014Z,77.00
2022-11-28T22:48:39.945Z,78.21
2022-11-28T22:51:10.216Z,77.60
2022-11-28T22:53:36.987Z,77.84
2022-11-28T22:56:05.547Z,77.40
2022-11-28T22:58:42.425Z,78.48
2022-11-28T23:01:13.676Z,77.17
2022-11-28T23:03:40.336Z,77.95
2022-11-28T23:06:09.574Z,77.92
2022-11-28T23:08:36.216Z,77.23
2022-11-28T23:11:08.593Z,77.80
2022-11-28T23:13:36.268Z,77.94
2022-11-28T23:16:24.402Z,77.86
2022-11-28T23:18:53.954Z,76.85
2022-11-28T23:21:21.821Z,77.46
2022-11-28T23:23:49.142Z,77.64
2022-11-28T23:26:19.465Z,78.10
2022-11-28T23:28:45.972Z,78.45
2022-11-28T23:31:15.874Z,78.05
2022-11-28T23:33:42.645Z,78.14
2022-11-28T23:38:50.859Z,77.62
2022-11-28T23:41:18.738Z,78.03
2022-11-28T23:43:46.146Z,77.75
2022-11-28T23:46:14.457Z,77.36
2022-11-28T23:48:42.677Z,78.60
2022-11-28T23:51:10.452Z,78.65
2022-11-28T23:53:37.058Z,78.25
2022-11-28T23:56:06.278Z,77.71
2022-11-28T23:58:34.578Z,77.77
